• Join FlightAware (Why Join?)
  • Login
  • US Flag 
07:29AM EST


 

Airport Tracker/Info


-or-


 

Live Flight TrackerFlight Track Log ✈ N6036Y ✈ 09-Mar-2014 ✈ KEVB - KTLH

Flight Track Log - Related Links

Times and Time Zones

All times are in EDT time to prevent confusion due to time zone crossing. See the N6036Y flight status page for this flight to view local times or setup timezone preferences in your user account.

Time Position Orientation Groundspeed Altitude Reporting Facility
EDT Latitude Longitude Course Direction KTS MPH feet Rate Location/Type
05:51PM 29.0533 -80.9378 77° East 67 77 600  Level Jacksonville Center
05:52PM 29.0553 -80.9281 77° East 76 87 800 660 Climbing Jacksonville Center
05:53PM 29.0717 -80.9089 46° Northeast 85 98 1,600 720 Climbing Jacksonville Center
05:54PM 29.0864 -80.9181 331° Northwest 81 93 2,200 660 Climbing Jacksonville Center
05:55PM 29.0972 -80.9439 296° West 81 93 3,000 420 Climbing Jacksonville Center
05:56PM 29.1081 -80.9653 300° West 91 105 3,100 240 Climbing Jacksonville Center
05:57PM 29.1311 -80.9836 325° Northwest 87 100 3,500 480 Climbing Jacksonville Center
05:58PM 29.1503 -81.0047 316° Northwest 82 94 4,200 600 Climbing Jacksonville Center
06:00PM 29.1822 -81.0375 318° Northwest 73 84 5,400 600 Climbing Jacksonville Center
06:01PM 29.1969 -81.0539 316° Northwest 82 94 6,000 540 Climbing Jacksonville Center
06:02PM 29.2117 -81.0703 316° Northwest 72 83 6,500 480 Climbing Jacksonville Center
06:03PM 29.2286 -81.0842 324° Northwest 75 86 7,000 240 Climbing Jacksonville Center
06:04PM 29.2436 -81.1031 312° West 90 104 7,100  Climbing Jacksonville Center
06:06PM 29.2900 -81.1450 322° Northwest 99 114 7,000 -60 Descending Jacksonville Center
06:07PM 29.3092 -81.1661 316° Northwest 95 109 7,000  Level Jacksonville Center
06:08PM 29.3303 -81.1894 316° Northwest 97 112 7,100  Climbing Jacksonville Center
06:09PM 29.3494 -81.2081 320° Northwest 99 114 7,100 -60 Level Jacksonville Center
06:10PM 29.3706 -81.2292 319° Northwest 98 113 7,000 -60 Descending Jacksonville Center
06:12PM 29.4108 -81.2739 316° Northwest 90 104 7,000  Level Jacksonville Center
06:13PM 29.4278 -81.2903 320° Northwest 92 106 7,000 -60 Level Jacksonville Center
06:14PM 29.4444 -81.3067 319° Northwest 91 105 6,900 -60 Descending Jacksonville Center
06:15PM 29.4614 -81.3231 320° Northwest 90 104 6,900  Level Jacksonville Center
06:16PM 29.4806 -81.3419 319° Northwest 91 105 7,000  Climbing Jacksonville Center
06:17PM 29.5017 -81.3583 326° Northwest 91 105 7,000 -60 Level Jacksonville Center
06:18PM 29.5228 -81.3819 316° Northwest 95 109 6,900 -60 Descending Jacksonville Center
06:19PM 29.5439 -81.4031 319° Northwest 91 105 6,900  Level Jacksonville Center
06:20PM 29.5628 -81.4217 319° Northwest 93 107 7,000  Climbing Jacksonville Center
06:21PM 29.5797 -81.4406 316° Northwest 93 107 7,000  Level Jacksonville Center
06:22PM 29.5986 -81.4594 319° Northwest 95 109 7,000  Level Jacksonville Center
06:23PM 29.6197 -81.4806 319° Northwest 94 108 7,000  Level Jacksonville Center
06:24PM 29.6389 -81.5019 316° Northwest 93 107 7,000  Level Jacksonville Center
06:25PM 29.6578 -81.5231 316° Northwest 95 109 7,000  Level Jacksonville Center
06:26PM 29.6789 -81.5419 322° Northwest 95 109 7,000 240 Level Jacksonville Center
06:27PM 29.6875 -81.5681 291° West 66 76 7,600 420 Climbing Jacksonville Center
06:28PM 29.6919 -81.5894 283° West 70 81 8,000 180 Climbing Jacksonville Center
06:29PM 29.6986 -81.6158 286° West 89 102 8,000  Level Jacksonville Center
06:30PM 29.7092 -81.6419 295° West 91 105 8,000  Level Jacksonville Center
06:31PM 29.7158 -81.6706 285° West 88 101 8,000 -60 Level Jacksonville Center
06:32PM 29.7222 -81.6992 284° West 90 104 7,900  Descending Jacksonville Center
06:33PM 29.7289 -81.7253 286° West 85 98 8,000  Climbing Jacksonville Center
06:34PM 29.7353 -81.7542 284° West 88 101 7,900  Descending Jacksonville Center
06:35PM 29.7419 -81.7803 286° West 89 102 8,000  Climbing Jacksonville Center
06:36PM 29.7503 -81.8089 289° West 90 104 8,000 -60 Level Jacksonville Center
06:37PM 29.7547 -81.8350 281° West 84 97 7,900 -60 Descending Jacksonville Center
06:38PM 29.7633 -81.8614 291° West 84 97 7,900  Level Jacksonville Center
06:39PM 29.7697 -81.8875 286° West 84 97 7,900  Level Jacksonville Center
06:40PM 29.7764 -81.9139 286° West 84 97 7,900  Level Jacksonville Center
06:41PM 29.7828 -81.9425 284° West 85 98 7,900  Level Jacksonville Center
06:42PM 29.7914 -81.9711 289° West 84 97 7,900  Level Jacksonville Center
06:43PM 29.7978 -81.9950 287° West 87 100 7,900  Level Jacksonville Center
06:44PM 29.8042 -82.0214 286° West 87 100 7,900  Level Jacksonville Center
06:45PM 29.8106 -82.0475 286° West 86 99 7,900  Level Jacksonville Center
06:46PM 29.8192 -82.0764 289° West 87 100 7,900  Level Jacksonville Center
06:47PM 29.8256 -82.1000 287° West 87 100 7,900  Level Jacksonville Center
06:48PM 29.8319 -82.1264 286° West 85 98 7,900  Level Jacksonville Center
06:49PM 29.8383 -82.1528 286° West 84 97 7,900  Level Jacksonville Center
06:50PM 29.8469 -82.1767 293° West 85 98 7,900  Level Jacksonville Center
06:51PM 29.8533 -82.2053 284° West 86 99 7,900  Level Jacksonville Center
06:52PM 29.8597 -82.2244 291° West 86 99 7,900  Level Jacksonville Center
06:53PM 29.8683 -82.2506 291° West 91 105 7,900  Level Jacksonville Center
06:54PM 29.8725 -82.2769 280° West 91 105 7,900  Level Jacksonville Center
06:55PM 29.8811 -82.3033 291° West 91 105 7,900  Level Jacksonville Center
06:56PM 29.8875 -82.3294 286° West 86 99 7,900  Level Jacksonville Center
06:57PM 29.8917 -82.3489 284° West 86 99 7,900  Level Jacksonville Center
06:58PM 29.9000 -82.3750 290° West 86 99 7,900  Level Jacksonville Center
06:59PM 29.9064 -82.4039 284° West 86 99 8,000  Climbing Jacksonville Center
07:00PM 29.9128 -82.4278 287° West 86 99 8,000  Level Jacksonville Center
07:01PM 29.9192 -82.4542 286° West 86 99 8,000  Level Jacksonville Center
07:02PM 29.9256 -82.4803 286° West 86 99 8,000  Level Jacksonville Center
07:03PM 29.9319 -82.5044 287° West 86 99 8,000  Level Jacksonville Center
07:04PM 29.9403 -82.5283 292° West 86 99 8,000  Level Jacksonville Center
07:05PM 29.9467 -82.5547 286° West 86 99 8,000  Level Jacksonville Center
07:06PM 29.9508 -82.5808 280° West 86 99 8,000  Level Jacksonville Center
07:07PM 29.9592 -82.6050 292° West 86 99 8,000  Level Jacksonville Center
07:08PM 29.9656 -82.6336 284° West 86 99 8,000  Level Jacksonville Center
07:09PM 29.9719 -82.6600 286° West 86 99 8,000  Level Jacksonville Center
07:10PM 29.9803 -82.6864 290° West 86 99 8,000  Level Jacksonville Center
07:11PM 29.9867 -82.7103 287° West 86 99 8,000  Level Jacksonville Center
07:12PM 29.9928 -82.7367 285° West 86 99 8,000  Level Jacksonville Center
07:13PM 30.0014 -82.7606 293° West 86 99 8,000  Level Jacksonville Center
07:14PM 30.0075 -82.7869 285° West 86 99 8,000  Level Jacksonville Center
07:15PM 30.0139 -82.8133 286° West 86 99 8,000  Level Jacksonville Center
07:16PM 30.0203 -82.8397 286° West 86 99 8,000  Level Jacksonville Center
07:17PM 30.0264 -82.8661 285° West 86 99 8,000  Level Jacksonville Center
07:18PM 30.0328 -82.8903 287° West 86 99 8,000  Level Jacksonville Center
07:19PM 30.0389 -82.9167 285° West 86 99 8,000  Level Jacksonville Center
07:20PM 30.0472 -82.9431 290° West 86 99 8,000  Level Jacksonville Center
07:21PM 30.0536 -82.9694 286° West 86 99 8,000  Level Jacksonville Center
07:22PM 30.0597 -82.9933 286° West 86 99 8,000  Level Jacksonville Center
07:23PM 30.0661 -83.0197 286° West 86 99 8,000  Level Jacksonville Center
07:24PM 30.0744 -83.0461 290° West 86 99 8,000  Level Jacksonville Center
07:25PM 30.0786 -83.0725 280° West 86 99 8,000 -60 Level Jacksonville Center
07:26PM 30.0867 -83.0992 289° West 86 99 7,900  Descending Jacksonville Center
07:27PM 30.0950 -83.1231 292° West 86 99 8,000  Climbing Jacksonville Center
07:28PM 30.0992 -83.1494 280° West 86 99 8,000  Level Jacksonville Center
07:29PM 30.1056 -83.1736 287° West 86 99 8,100  Climbing Jacksonville Center
07:30PM 30.1117 -83.1975 286° West 86 99 8,100 -60 Level Jacksonville Center
07:31PM 30.1178 -83.2217 286° West 86 99 8,000 -60 Descending Jacksonville Center
07:32PM 30.1261 -83.2503 289° West 91 105 8,000  Level Jacksonville Center
07:33PM 30.1322 -83.2769 285° West 91 105 8,000  Level Jacksonville Center
07:34PM 30.1364 -83.3033 280° West 91 105 8,000  Level Jacksonville Center
07:35PM 30.1447 -83.3297 290° West 91 105 8,000  Level Jacksonville Center
07:36PM 30.1531 -83.3561 290° West 91 105 8,100  Climbing Jacksonville Center
07:37PM 30.1592 -83.3828 285° West 91 105 8,000 -60 Descending Jacksonville Center
07:38PM 30.1653 -83.4092 285° West 91 105 8,000  Level Jacksonville Center
07:39PM 30.1756 -83.4381 292° West 91 105 8,000  Level Jacksonville Center
07:40PM 30.1797 -83.4644 280° West 86 99 8,000  Level Jacksonville Center
07:41PM 30.1836 -83.4933 279° West 86 99 8,000  Level Jacksonville Center
07:42PM 30.1897 -83.5244 283° West 86 99 8,000  Level Jacksonville Center
07:43PM 30.1981 -83.5486 292° West 86 99 8,000 -180 Level Jacksonville Center
07:44PM 30.2103 -83.5800 294° West 92 106 7,700 -540 Descending Jacksonville Center
07:45PM 30.2228 -83.6089 297° West 92 106 7,000 -720 Descending Jacksonville Center
07:47PM 30.2219 -83.6433 268° West  Level FlightAware Approximate
07:54PM 30.2172 -83.8312 268° West  Level FlightAware Approximate
07:55PM 30.2222 -83.8657 292° West  Level FlightAware Approximate
07:56PM 30.2310 -83.8906 292° West  Level FlightAware Approximate
07:57PM 30.2398 -83.9154 292° West  Level FlightAware Approximate
07:58PM 30.2486 -83.9403 292° West  Level FlightAware Approximate
07:59PM 30.2574 -83.9651 292° West  Level FlightAware Approximate
08:00PM 30.2662 -83.9900 292° West  Level FlightAware Approximate
08:01PM 30.2749 -84.0148 292° West  Level FlightAware Approximate
08:02PM 30.2837 -84.0397 292° West  Level FlightAware Approximate
08:03PM 30.2925 -84.0646 292° West  Level FlightAware Approximate
08:04PM 30.3012 -84.0895 292° West  Level FlightAware Approximate
08:05PM 30.3100 -84.1143 292° West  Level FlightAware Approximate
08:06PM 30.3190 -84.1391 295° West  Level FlightAware Approximate
08:07PM 30.3287 -84.1635 295° West  Level FlightAware Approximate
08:08PM 30.3385 -84.1879 295° West  Level FlightAware Approximate
08:09PM 30.3482 -84.2123 295° West  Level FlightAware Approximate
08:10PM 30.3595 -84.2357 300° West  Level FlightAware Approximate
08:11PM 30.3684 -84.2602 281° West  Level FlightAware Approximate
08:12PM 30.3728 -84.2866 281° West  Level FlightAware Approximate
08:13PM 30.3772 -84.3130 281° West  Level FlightAware Approximate
08:14PM 30.3816 -84.3394 281° West  Level FlightAware Approximate
08:15PM 30.3833 -84.3500 281° West  Level FlightAware Approximate
08:16PM 30.3967 -84.3509 281° West  Level Estimated
08:17PM 30.3967 -84.3509 281° West  Level Estimated
08:18PM 30.3967 -84.3509 281° West  Level Estimated
08:19PM 30.3967 -84.3509 281° West  Level Estimated
08:20PM 30.3967 -84.3509 281° West  Level Estimated
08:21PM 30.3967 -84.3509 281° West  Level Estimated